Time;durP1;ratioP1;P1;durP2;ratioP2;P2;SDS_P1;SDS_P2;PMS_P1;PMS_P2;Temp;Humidity;BMP_temperature;BMP_pressure;BME280_temperature;BME280_humidity;BME280_pressure;Samples;Min_cycle;Max_cycle;Signal;HPM_P1;HPM_P2
2023/02/19 00:01:47;;;;;;;22.43;14.27;;;;;;;8.17;81.53;100064.19;1452022;88;21334;-79
2023/02/19 00:04:16;;;;;;;30.77;15.67;;;;;;;8.17;81.71;100068.14;1475642;88;21363;-79
2023/02/19 00:06:44;;;;;;;25.53;16.43;;;;;;;8.18;81.43;100064.55;1426447;88;21326;-79
2023/02/19 00:09:12;;;;;;;25.20;15.63;;;;;;;8.17;81.62;100070.78;1438047;88;21259;-79
2023/02/19 00:11:39;;;;;;;28.50;15.63;;;;;;;8.18;81.36;100077.73;1445740;88;21296;-79
2023/02/19 00:14:07;;;;;;;25.73;15.83;;;;;;;8.14;81.12;100078.02;1438487;88;21319;-77
2023/02/19 00:16:37;;;;;;;28.17;16.50;;;;;;;8.14;80.97;100086.39;1438856;88;21317;-78
2023/02/19 00:19:07;;;;;;;23.55;14.15;;;;;;;8.09;80.91;100088.14;1457987;88;21467;-80
2023/02/19 00:21:33;;;;;;;22.77;15.47;;;;;;;8.04;81.04;100091.68;1446381;88;21451;-79
2023/02/19 00:24:05;;;;;;;26.23;16.30;;;;;;;8.03;81.40;100097.11;1471194;88;21430;-79
2023/02/19 00:26:33;;;;;;;27.87;15.63;;;;;;;8.02;81.52;100095.42;1469079;88;22547;-79
2023/02/19 00:29:00;;;;;;;23.57;14.83;;;;;;;8.00;81.54;100093.41;1468691;88;21495;-78
2023/02/19 00:31:33;;;;;;;24.60;16.30;;;;;;;7.97;81.15;100085.77;1438453;88;21335;-78
2023/02/19 00:34:02;;;;;;;25.37;15.20;;;;;;;7.91;81.55;100088.48;1457719;88;21401;-79
2023/02/19 00:36:30;;;;;;;23.80;16.83;;;;;;;7.85;82.08;100085.95;1455450;88;21422;-78
2023/02/19 00:38:56;;;;;;;27.93;16.20;;;;;;;7.81;81.75;100094.25;1521801;88;21252;-78
2023/02/19 00:41:24;;;;;;;26.17;15.73;;;;;;;7.78;81.85;100098.48;1507045;88;21394;-79
2023/02/19 00:43:57;;;;;;;25.80;14.93;;;;;;;7.75;82.18;100100.07;1520036;88;21378;-79
2023/02/19 00:46:33;;;;;;;21.23;13.97;;;;;;;7.71;82.16;100098.66;1501781;88;22199;-78
2023/02/19 00:49:00;;;;;;;28.60;13.60;;;;;;;7.66;82.05;100095.14;1458109;88;21378;-79
2023/02/19 00:51:30;;;;;;;25.30;14.17;;;;;;;7.60;82.02;100103.10;1457297;88;21582;-77
2023/02/19 00:53:57;;;;;;;20.27;11.38;;;;;;;7.54;82.71;100097.53;1456022;88;21342;-79
2023/02/19 00:56:23;;;;;;;21.70;13.23;;;;;;;7.50;82.35;100095.66;1481835;88;21274;-80
2023/02/19 00:58:51;;;;;;;20.83;12.23;;;;;;;7.47;82.52;100097.25;1481056;88;22295;-80
2023/02/19 01:01:18;;;;;;;19.90;11.73;;;;;;;7.45;82.89;100097.86;1463963;88;22200;-77
2023/02/19 01:03:45;;;;;;;25.10;11.40;;;;;;;7.43;82.93;100098.50;1478648;87;21393;-79
2023/02/19 01:06:14;;;;;;;24.03;12.80;;;;;;;7.41;83.02;100097.80;1475751;88;21297;-79
2023/02/19 01:08:40;;;;;;;16.53;10.63;;;;;;;7.38;84.10;100098.89;1472188;88;21347;-80
2023/02/19 01:11:08;;;;;;;17.40;10.90;;;;;;;7.38;83.27;100101.52;1432258;88;21480;-80
2023/02/19 01:13:35;;;;;;;14.40;9.13;;;;;;;7.38;83.85;100096.75;1463350;88;21364;-78
2023/02/19 01:16:04;;;;;;;16.80;9.23;;;;;;;7.39;83.83;100099.27;1441235;87;21490;-80
2023/02/19 01:18:31;;;;;;;18.87;11.03;;;;;;;7.41;83.67;100096.47;1420493;88;21466;-80
2023/02/19 01:20:57;;;;;;;16.23;10.60;;;;;;;7.39;83.83;100102.34;1439093;88;21252;-79
2023/02/19 01:23:24;;;;;;;13.47;9.53;;;;;;;7.39;83.61;100108.48;1438264;88;21459;-80
2023/02/19 01:25:50;;;;;;;14.47;9.27;;;;;;;7.36;83.43;100106.57;1439222;88;21452;-79
2023/02/19 01:28:16;;;;;;;13.50;8.60;;;;;;;7.33;83.52;100106.84;1455975;88;21510;-79
2023/02/19 01:30:43;;;;;;;12.37;9.17;;;;;;;7.29;83.49;100108.92;1455119;88;21312;-81
2023/02/19 01:33:09;;;;;;;19.60;10.33;;;;;;;7.28;83.41;100106.41;1457632;88;21400;-80
2023/02/19 01:35:38;;;;;;;12.77;8.17;;;;;;;7.25;83.48;100108.85;1418543;88;21488;-79
2023/02/19 01:38:07;;;;;;;13.77;8.17;;;;;;;7.20;83.85;100105.30;1418882;88;21422;-80
2023/02/19 01:40:33;;;;;;;17.00;9.87;;;;;;;7.17;83.48;100108.68;1422553;88;21341;-81
2023/02/19 01:43:02;;;;;;;13.27;9.37;;;;;;;7.10;83.71;100110.98;1445339;88;21348;-80
2023/02/19 01:45:33;;;;;;;17.63;9.00;;;;;;;7.03;84.12;100112.50;1437176;88;21459;-80
2023/02/19 01:48:13;;;;;;;18.37;9.27;;;;;;;6.97;84.16;100108.59;1437712;88;21304;-77
2023/02/19 01:50:45;;;;;;;16.12;8.38;;;;;;;6.92;84.48;100116.53;1449648;88;21363;-80
2023/02/19 01:53:14;;;;;;;11.43;7.23;;;;;;;6.90;85.03;100119.77;1455570;88;21707;-79
2023/02/19 01:55:43;;;;;;;12.30;7.83;;;;;;;6.89;85.24;100129.95;1481108;88;21423;-80
2023/02/19 01:58:10;;;;;;;10.83;7.10;;;;;;;6.89;85.26;100124.20;1452069;88;21572;-81
2023/02/19 02:00:36;;;;;;;11.20;8.13;;;;;;;6.89;85.03;100119.43;1455436;88;22192;-80
2023/02/19 02:03:03;;;;;;;9.83;6.77;;;;;;;6.89;84.77;100116.80;1409830;89;22528;-80
2023/02/19 02:06:00;;;;;;;13.60;6.93;;;;;;;6.91;84.31;100116.20;1456671;88;21317;-79
2023/02/19 02:11:12;;;;;;;10.00;6.90;;;;;;;6.89;84.23;100115.48;1443127;88;21252;-80
2023/02/19 02:13:39;;;;;;;12.17;7.63;;;;;;;6.88;84.10;100116.46;1456596;88;21455;-79
2023/02/19 02:16:17;;;;;;;13.37;5.80;;;;;;;6.87;84.25;100119.55;1440205;88;21267;-78
2023/02/19 02:19:06;;;;;;;11.90;6.93;;;;;;;6.91;83.98;100120.14;1444393;88;21431;-79
2023/02/19 02:21:53;;;;;;;11.13;6.03;;;;;;;6.94;83.88;100124.66;1474549;87;22287;-81
2023/02/19 02:24:47;;;;;;;9.97;5.43;;;;;;;7.01;83.68;100109.16;1447294;88;21511;-80
2023/02/19 02:27:51;;;;;;;7.83;5.50;;;;;;;7.09;83.15;100105.39;1432941;88;21312;-79
2023/02/19 02:30:28;;;;;;;7.57;4.93;;;;;;;7.20;82.70;100114.50;1437419;88;21378;-79
2023/02/19 02:33:38;;;;;;;7.70;4.27;;;;;;;7.29;81.87;100110.23;1456231;87;21415;-80
2023/02/19 02:36:09;;;;;;;7.70;5.13;;;;;;;7.37;81.66;100120.10;1486964;88;21370;-81
2023/02/19 02:38:40;;;;;;;7.70;4.75;;;;;;;7.43;81.24;100121.70;1525188;88;21237;-79
2023/02/19 02:41:07;;;;;;;8.60;4.53;;;;;;;7.49;80.85;100128.72;1446116;88;21385;-79
2023/02/19 02:43:33;;;;;;;6.00;4.03;;;;;;;7.52;80.45;100124.02;1438774;88;21297;-79
2023/02/19 02:45:59;;;;;;;8.17;4.80;;;;;;;7.55;80.08;100121.11;1417942;88;22281;-79
2023/02/19 02:48:54;;;;;;;5.07;3.37;;;;;;;7.61;80.27;100119.24;1416368;88;21442;-78
2023/02/19 02:51:25;;;;;;;5.67;3.97;;;;;;;7.63;80.09;100126.53;1440163;88;21393;-80
2023/02/19 02:56:46;;;;;;;6.27;4.13;;;;;;;7.69;79.64;100137.02;1456586;88;21304;-79
2023/02/19 02:59:17;;;;;;;5.60;3.53;;;;;;;7.73;79.32;100138.39;1456148;88;21327;-80
2023/02/19 03:08:30;;;;;;;7.37;4.87;;;;;;;7.80;78.89;100145.29;1475799;88;21319;-80
2023/02/19 03:19:57;;;;;;;8.50;5.23;;;;;;;7.73;78.56;100166.55;1471352;88;21377;-80
2023/02/19 03:22:34;;;;;;;5.17;3.33;;;;;;;7.72;78.73;100172.30;1476555;88;21607;-79
2023/02/19 03:27:51;;;;;;;5.90;3.60;;;;;;;7.66;78.65;100176.31;1414844;88;21481;-80
2023/02/19 03:30:21;;;;;;;7.07;4.37;;;;;;;7.65;78.68;100164.57;1437274;88;21423;-78
2023/02/19 03:33:13;;;;;;;5.83;3.77;;;;;;;7.65;79.01;100179.06;1438183;88;21632;-79
2023/02/19 03:35:48;;;;;;;5.13;3.67;;;;;;;7.67;79.23;100180.59;1455087;88;22103;-79
2023/02/19 03:38:30;;;;;;;5.73;4.03;;;;;;;7.68;79.16;100179.65;1435074;88;21576;-80
2023/02/19 03:41:08;;;;;;;4.40;3.40;;;;;;;7.72;79.04;100183.33;1435700;88;21421;-80
2023/02/19 03:43:45;;;;;;;5.27;3.23;;;;;;;7.71;79.07;100181.18;1439815;88;21378;-79
2023/02/19 03:46:25;;;;;;;6.93;4.37;;;;;;;7.73;78.91;100178.39;1483950;88;21355;-80
2023/02/19 03:49:09;;;;;;;5.53;3.65;;;;;;;7.79;79.04;100175.22;1477714;88;22221;-79
2023/02/19 03:51:45;;;;;;;5.17;3.00;;;;;;;7.84;78.54;100182.23;1424414;88;21444;-80
2023/02/19 03:54:23;;;;;;;4.57;3.27;;;;;;;7.90;78.32;100167.20;1453203;88;21376;-79
2023/02/19 03:57:13;;;;;;;5.23;2.70;;;;;;;7.91;78.15;100167.53;1497156;88;21406;-78
2023/02/19 03:59:45;;;;;;;5.25;3.35;;;;;;;7.95;78.31;100160.20;1499633;88;21274;-80
2023/02/19 04:02:15;;;;;;;3.67;2.93;;;;;;;7.95;78.14;100157.58;1472829;88;21407;-80
2023/02/19 04:04:46;;;;;;;5.03;3.30;;;;;;;7.97;77.96;100157.78;1444732;88;21518;-78
2023/02/19 04:07:13;;;;;;;4.03;2.63;;;;;;;7.98;77.68;100158.61;1422339;88;21364;-79
2023/02/19 04:09:44;;;;;;;4.50;2.73;;;;;;;7.96;77.34;100144.24;1463375;88;21451;-80
2023/02/19 04:12:13;;;;;;;4.40;3.10;;;;;;;7.94;77.11;100135.66;1435271;88;21393;-78
2023/02/19 04:14:45;;;;;;;3.83;2.97;;;;;;;7.93;77.20;100130.52;1441643;88;21267;-79
2023/02/19 04:17:22;;;;;;;6.03;2.20;;;;;;;7.91;77.22;100131.95;1438066;88;21547;-79
2023/02/19 04:19:50;;;;;;;4.33;2.17;;;;;;;7.87;76.97;100126.14;1481304;88;21430;-80
2023/02/19 04:22:17;;;;;;;3.77;2.60;;;;;;;7.85;76.93;100136.47;1456537;88;21341;-80
2023/02/19 04:24:50;;;;;;;6.43;2.87;;;;;;;7.77;76.98;100141.13;1433293;88;21408;-78
2023/02/19 04:27:17;;;;;;;5.23;2.83;;;;;;;7.71;76.93;100140.35;1453386;88;22214;-79
2023/02/19 04:29:43;;;;;;;3.97;2.60;;;;;;;7.64;77.00;100153.70;1453868;88;21289;-80
2023/02/19 04:32:12;;;;;;;6.37;3.07;;;;;;;7.56;77.45;100143.00;1454211;88;21393;-80
2023/02/19 04:34:39;;;;;;;6.97;2.53;;;;;;;7.50;77.79;100141.74;1436812;88;21470;-79
2023/02/19 04:37:06;;;;;;;4.17;2.70;;;;;;;7.46;78.03;100146.45;1456284;88;21319;-78
2023/02/19 04:39:32;;;;;;;3.37;2.30;;;;;;;7.42;77.89;100146.38;1460241;88;21363;-80
2023/02/19 04:41:59;;;;;;;5.73;3.60;;;;;;;7.35;77.92;100146.55;1479476;88;21334;-79
2023/02/19 04:44:25;;;;;;;5.50;3.67;;;;;;;7.30;78.05;100148.74;1486203;88;21386;-79
2023/02/19 04:46:51;;;;;;;16.27;7.43;;;;;;;7.23;78.23;100151.09;1456898;88;21259;-79
2023/02/19 04:49:17;;;;;;;13.23;6.67;;;;;;;7.16;78.15;100140.75;1457380;88;21364;-80
2023/02/19 04:51:44;;;;;;;11.37;5.10;;;;;;;7.09;78.28;100153.25;1455630;88;21393;-81
2023/02/19 04:54:10;;;;;;;7.87;4.20;;;;;;;7.05;78.46;100155.31;1435249;88;21429;-80
2023/02/19 04:56:37;;;;;;;7.83;4.90;;;;;;;7.00;78.80;100158.81;1434708;88;21356;-79
2023/02/19 04:59:03;;;;;;;11.07;5.80;;;;;;;6.97;78.82;100149.87;1449197;88;21311;-81
2023/02/19 05:01:30;;;;;;;11.83;5.33;;;;;;;6.94;78.78;100155.39;1472496;88;21521;-78
2023/02/19 05:03:56;;;;;;;10.40;5.30;;;;;;;6.88;78.68;100152.80;1474228;88;21666;-80
2023/02/19 05:06:23;;;;;;;8.73;5.47;;;;;;;6.84;78.66;100160.58;1471024;88;21377;-81
2023/02/19 05:08:49;;;;;;;10.10;5.07;;;;;;;6.77;78.62;100152.87;1475429;88;21495;-79
2023/02/19 05:11:15;;;;;;;12.33;4.97;;;;;;;6.68;78.61;100150.55;1472576;88;22470;-79
2023/02/19 05:13:41;;;;;;;8.30;4.37;;;;;;;6.59;78.61;100148.70;1473572;88;21590;-81
2023/02/19 05:16:12;;;;;;;10.53;4.80;;;;;;;6.52;78.96;100152.78;1470510;88;21436;-79
2023/02/19 05:18:40;;;;;;;8.15;5.15;;;;;;;6.43;79.35;100150.92;1418257;88;21534;-79
2023/02/19 05:21:06;;;;;;;7.13;4.30;;;;;;;6.30;79.75;100159.84;1457094;88;21467;-79
2023/02/19 05:23:32;;;;;;;7.17;4.27;;;;;;;6.20;80.25;100162.02;1439632;88;21305;-77
2023/02/19 05:26:01;;;;;;;10.97;5.93;;;;;;;6.11;80.25;100157.05;1457918;88;22206;-79
2023/02/19 05:28:30;;;;;;;13.07;6.83;;;;;;;6.05;80.42;100158.86;1442247;88;21517;-78
2023/02/19 05:30:56;;;;;;;13.70;7.83;;;;;;;5.98;80.73;100152.42;1458205;88;22206;-84
2023/02/19 05:33:25;;;;;;;15.13;7.80;;;;;;;5.92;81.21;100151.58;1457186;88;21459;-85
2023/02/19 05:35:54;;;;;;;14.43;8.40;;;;;;;5.89;81.15;100158.74;1440691;88;21553;-87
2023/02/19 05:38:21;;;;;;;16.57;7.47;;;;;;;5.84;81.30;100164.01;1483719;88;21244;-85
2023/02/19 05:40:48;;;;;;;12.63;7.13;;;;;;;5.81;81.93;100157.23;1462029;88;21327;-85
2023/02/19 05:43:14;;;;;;;14.13;8.90;;;;;;;5.78;82.56;100152.23;1476507;88;21480;-85
2023/02/19 05:45:40;;;;;;;14.97;8.50;;;;;;;5.80;82.73;100148.98;1475328;88;21297;-85
2023/02/19 05:48:07;;;;;;;49.83;27.23;;;;;;;5.82;83.09;100148.39;1474700;88;21312;-83
2023/02/19 05:50:35;;;;;;;70.20;41.43;;;;;;;5.86;83.33;100163.41;1470680;88;22392;-85
2023/02/19 05:53:04;;;;;;;46.77;28.73;;;;;;;5.88;83.33;100162.34;1443635;88;21297;-85
2023/02/19 05:55:35;;;;;;;45.67;26.53;;;;;;;5.92;83.22;100158.15;1438960;88;21414;-84
2023/02/19 05:58:01;;;;;;;49.70;30.63;;;;;;;5.94;83.20;100149.70;1456022;88;21407;-85
2023/02/19 06:00:28;;;;;;;53.80;36.37;;;;;;;5.96;83.13;100147.80;1456227;88;21282;-85
2023/02/19 06:02:55;;;;;;;25.97;16.10;;;;;;;5.95;83.24;100135.60;1455011;88;21562;-84
2023/02/19 06:05:21;;;;;;;22.53;13.97;;;;;;;5.94;83.38;100145.28;1437372;88;21466;-84
2023/02/19 06:07:49;;;;;;;20.20;14.20;;;;;;;5.96;83.54;100151.73;1437671;88;21356;-85
2023/02/19 06:10:16;;;;;;;25.47;16.63;;;;;;;5.97;83.88;100152.08;1453854;88;21452;-86
2023/02/19 06:12:42;;;;;;;23.67;15.20;;;;;;;6.02;83.94;100152.55;1438356;88;21459;-86
2023/02/19 06:15:08;;;;;;;38.50;23.40;;;;;;;6.05;83.87;100153.61;1454187;88;21282;-85
2023/02/19 06:17:35;;;;;;;25.10;16.07;;;;;;;6.04;83.93;100144.90;1447097;88;21326;-85
2023/02/19 06:20:01;;;;;;;21.80;14.50;;;;;;;6.04;83.70;100136.16;1442554;88;22332;-85
2023/02/19 06:22:27;;;;;;;31.00;18.60;;;;;;;6.02;83.58;100133.67;1457208;88;21296;-87
2023/02/19 06:24:54;;;;;;;22.90;14.10;;;;;;;6.00;83.61;100127.70;1457161;88;21526;-88
2023/02/19 06:27:20;;;;;;;15.00;8.13;;;;;;;5.94;83.95;100128.20;1457487;88;21267;-90
2023/02/19 06:29:46;;;;;;;12.20;7.07;;;;;;;5.88;85.34;100133.45;1448567;87;21527;-89
2023/02/19 06:32:12;;;;;;;14.43;7.27;;;;;;;5.83;85.30;100136.91;1469137;88;22523;-88
2023/02/19 06:34:38;;;;;;;12.97;8.50;;;;;;;5.84;85.16;100147.80;1474031;88;21362;-89
2023/02/19 06:37:04;;;;;;;13.77;8.07;;;;;;;5.84;86.04;100146.48;1472064;88;21556;-89
2023/02/19 06:39:31;;;;;;;10.87;6.70;;;;;;;5.81;86.06;100145.42;1457093;88;21451;-88
2023/02/19 06:41:57;;;;;;;12.93;7.37;;;;;;;5.84;86.11;100137.29;1479332;88;21620;-88
2023/02/19 06:44:24;;;;;;;8.23;6.07;;;;;;;5.87;85.90;100126.53;1428269;88;21289;-89
2023/02/19 06:46:52;;;;;;;15.47;9.07;;;;;;;5.91;85.76;100134.16;1462851;88;21489;-89
2023/02/19 06:49:19;;;;;;;8.00;5.87;;;;;;;5.97;85.75;100132.37;1459262;88;21399;-86
2023/02/19 06:51:45;;;;;;;7.57;5.50;;;;;;;6.00;85.70;100133.44;1456357;88;21562;-86
2023/02/19 06:54:11;;;;;;;8.00;5.57;;;;;;;6.02;85.44;100134.16;1473694;88;21414;-86
2023/02/19 06:56:39;;;;;;;5.80;3.83;;;;;;;6.03;85.37;100142.38;1470787;88;21555;-86
2023/02/19 06:59:15;;;;;;;6.33;4.87;;;;;;;6.00;85.49;100143.95;1470726;88;21406;-85
2023/02/19 07:01:42;;;;;;;8.53;6.53;;;;;;;6.00;85.50;100137.38;1457630;88;23988;-84
2023/02/19 07:04:08;;;;;;;6.83;4.90;;;;;;;6.01;85.74;100129.84;1471090;88;21466;-84
2023/02/19 07:06:36;;;;;;;6.30;4.30;;;;;;;6.05;85.70;100137.36;1473571;88;21555;-84
2023/02/19 07:09:05;;;;;;;6.03;4.53;;;;;;;6.08;85.59;100125.77;1437788;88;21488;-86
2023/02/19 07:11:34;;;;;;;5.47;4.13;;;;;;;6.12;86.04;100122.41;1455598;88;21474;-87
2023/02/19 07:14:03;;;;;;;7.90;4.63;;;;;;;6.14;86.38;100126.58;1456327;88;21385;-85
2023/02/19 07:16:29;;;;;;;7.23;3.33;;;;;;;6.20;85.99;100126.06;1455155;88;21473;-87
2023/02/19 07:18:58;;;;;;;6.27;3.97;;;;;;;6.26;86.13;100124.72;1450868;88;21393;-87
2023/02/19 07:21:25;;;;;;;7.90;4.73;;;;;;;6.31;85.97;100122.06;1440640;88;21423;-85
2023/02/19 07:23:51;;;;;;;12.40;7.33;;;;;;;6.41;85.69;100112.09;1441906;88;21322;-86
2023/02/19 07:26:19;;;;;;;43.07;24.40;;;;;;;6.47;85.32;100101.06;1439621;88;21474;-85
2023/02/19 07:28:48;;;;;;;43.77;26.00;;;;;;;6.54;85.06;100096.48;1463645;88;21304;-85
2023/02/19 07:31:18;;;;;;;58.10;29.63;;;;;;;6.59;84.72;100085.59;1441234;88;21267;-84
2023/02/19 07:33:46;;;;;;;84.80;41.53;;;;;;;6.66;84.70;100088.03;1504765;88;21384;-86
2023/02/19 07:36:16;;;;;;;66.83;35.47;;;;;;;6.71;84.68;100089.79;1472321;88;21422;-85
2023/02/19 07:38:43;;;;;;;34.63;21.37;;;;;;;6.78;84.53;100102.75;1456619;88;21289;-87
2023/02/19 07:41:10;;;;;;;20.23;13.33;;;;;;;6.83;84.26;100108.13;1468718;88;21448;-87
2023/02/19 07:43:37;;;;;;;17.67;12.20;;;;;;;6.88;84.01;100079.62;1456094;88;21348;-86
2023/02/19 07:46:07;;;;;;;21.73;13.67;;;;;;;6.91;83.80;100081.99;1455974;88;21312;-87
2023/02/19 07:48:35;;;;;;;11.83;9.93;;;;;;;6.96;83.62;100077.14;1479130;88;21422;-86
2023/02/19 07:51:04;;;;;;;12.90;10.63;;;;;;;7.00;83.45;100087.77;1462773;88;21597;-87
2023/02/19 07:53:32;;;;;;;10.63;6.93;;;;;;;7.05;83.56;100086.89;1473233;88;21516;-83
2023/02/19 07:56:00;;;;;;;8.83;5.37;;;;;;;7.12;83.71;100095.91;1443257;88;21538;-86
2023/02/19 07:58:28;;;;;;;8.50;6.10;;;;;;;7.18;83.60;100096.69;1455416;88;22177;-85
2023/02/19 08:00:54;;;;;;;10.70;5.80;;;;;;;7.24;83.47;100089.56;1456006;88;21511;-86
2023/02/19 08:03:20;;;;;;;11.20;6.50;;;;;;;7.34;83.29;100091.41;1461400;88;21407;-85
2023/02/19 08:05:48;;;;;;;12.07;6.57;;;;;;;7.43;83.10;100090.60;1454619;88;21551;-85
2023/02/19 08:08:18;;;;;;;13.00;7.47;;;;;;;7.50;82.94;100095.66;1455979;88;21311;-84
2023/02/19 08:13:29;;;;;;;13.27;5.23;;;;;;;7.57;82.67;100090.21;1484034;88;21507;-85
2023/02/19 08:16:04;;;;;;;11.20;5.60;;;;;;;7.63;82.79;100086.20;1437515;88;22229;-85
2023/02/19 08:18:32;;;;;;;11.87;4.33;;;;;;;7.68;82.58;100087.45;1455434;88;21348;-87
2023/02/19 08:20:59;;;;;;;4.27;2.73;;;;;;;7.69;82.72;100091.74;1476756;88;21568;-85
2023/02/19 08:23:27;;;;;;;6.03;2.63;;;;;;;7.80;82.50;100084.69;1472336;88;21510;-84
2023/02/19 08:25:59;;;;;;;4.90;2.80;;;;;;;7.83;81.94;100089.68;1479467;88;21407;-86
2023/02/19 08:28:25;;;;;;;5.30;3.23;;;;;;;7.88;81.94;100089.62;1473446;88;21407;-86
2023/02/19 08:30:52;;;;;;;5.97;3.30;;;;;;;7.92;81.85;100088.84;1472659;88;21412;-85
2023/02/19 08:33:20;;;;;;;7.93;3.27;;;;;;;7.95;81.85;100079.34;1476355;88;22446;-86
2023/02/19 08:35:47;;;;;;;5.50;3.50;;;;;;;8.02;81.99;100082.24;1475151;88;21371;-87
2023/02/19 08:44:35;;;;;;;5.22;3.15;;;;;;;8.22;81.50;100074.66;1456199;88;21333;-87
2023/02/19 08:47:03;;;;;;;3.87;2.90;;;;;;;8.32;80.63;100068.90;1455825;88;22343;-83
2023/02/19 08:49:30;;;;;;;8.47;3.20;;;;;;;8.42;80.27;100082.09;1441243;88;21496;-83
2023/02/19 08:51:56;;;;;;;4.53;3.10;;;;;;;8.49;79.38;100066.55;1480081;88;21446;-86
2023/02/19 08:54:22;;;;;;;4.67;3.20;;;;;;;8.61;79.38;100086.98;1500583;88;21386;-90
2023/02/19 08:56:48;;;;;;;7.77;5.37;;;;;;;8.69;79.34;100091.03;1479385;88;21510;-85
2023/02/19 09:07:11;;;;;;;13.43;4.33;;;;;;;8.96;78.11;100095.05;1427676;87;22140;-86
2023/02/19 09:09:38;;;;;;;5.87;3.90;;;;;;;9.03;78.15;100100.56;1440138;88;21304;-87
2023/02/19 09:12:06;;;;;;;5.90;4.07;;;;;;;9.11;78.43;100100.67;1451305;88;21452;-85
2023/02/19 09:14:33;;;;;;;7.60;3.63;;;;;;;9.20;78.33;100096.32;1508409;88;21289;-87
2023/02/19 09:17:01;;;;;;;8.70;4.50;;;;;;;9.28;77.83;100089.00;1483310;88;21361;-88
2023/02/19 09:19:27;;;;;;;5.10;3.63;;;;;;;9.36;77.35;100090.41;1464157;88;21400;-85
2023/02/19 09:21:54;;;;;;;6.93;3.90;;;;;;;9.47;76.70;100099.45;1475546;88;21460;-88
2023/02/19 09:30:42;;;;;;;;;;;;;;;9.78;75.38;100084.09;1501048;88;22346;-86
2023/02/19 09:33:09;;;;;;;9.73;4.87;;;;;;;9.94;75.24;100084.22;1523597;88;20245;-88
2023/02/19 09:35:39;;;;;;;4.77;2.67;;;;;;;10.06;74.78;100089.28;1481615;88;22376;-88
2023/02/19 09:38:05;;;;;;;4.12;2.77;;;;;;;10.15;74.91;100085.71;1438187;88;21370;-88
2023/02/19 09:40:34;;;;;;;6.13;3.90;;;;;;;10.28;74.35;100084.04;1472051;88;21489;-86
2023/02/19 09:43:00;;;;;;;4.13;2.20;;;;;;;10.37;73.83;100087.91;1471750;88;21451;-87
2023/02/19 09:45:26;;;;;;;6.27;3.50;;;;;;;10.46;73.01;100072.91;1452433;88;21423;-88
2023/02/19 09:47:56;;;;;;;3.47;2.47;;;;;;;10.58;73.49;100082.74;1472581;88;21369;-89
2023/02/19 09:50:28;;;;;;;2.83;2.00;;;;;;;10.66;72.55;100081.47;1475663;88;21600;-86
2023/02/19 09:53:00;;;;;;;4.87;3.07;;;;;;;10.75;71.70;100063.33;1468607;88;22495;-87
2023/02/19 09:55:42;;;;;;;4.20;2.30;;;;;;;10.82;71.47;100074.95;1463457;88;21415;-86
2023/02/19 09:58:31;;;;;;;6.63;3.30;;;;;;;10.92;71.26;100063.41;1465631;88;21724;-83
2023/02/19 10:01:01;;;;;;;3.07;2.00;;;;;;;11.04;71.10;100072.72;1471081;88;21348;-87
2023/02/19 10:03:42;;;;;;;3.50;2.57;;;;;;;11.16;70.14;100060.84;1440147;88;21921;-84
2023/02/19 10:06:24;;;;;;;5.65;2.87;;;;;;;11.30;70.16;100059.41;1455702;88;21312;-84
2023/02/19 10:09:19;;;;;;;3.23;2.40;;;;;;;11.43;69.86;100059.78;1434096;88;21379;-88
2023/02/19 10:11:47;;;;;;;3.23;2.00;;;;;;;11.54;70.20;100069.26;1479749;88;22222;-87
2023/02/19 10:14:28;;;;;;;3.67;2.40;;;;;;;11.56;69.07;100044.72;1461927;88;22111;-87
2023/02/19 10:17:04;;;;;;;2.75;2.10;;;;;;;11.56;69.11;100061.95;1449043;88;22218;-86
2023/02/19 10:23:17;;;;;;;3.63;2.67;;;;;;;11.47;68.35;100058.95;1446889;88;21459;-84
2023/02/19 10:25:55;;;;;;;2.33;1.70;;;;;;;11.47;68.67;100040.41;1500968;88;21349;-84
2023/02/19 10:28:27;;;;;;;2.87;2.10;;;;;;;11.50;68.20;100050.18;1466571;88;21287;-89
2023/02/19 10:30:57;;;;;;;5.43;2.17;;;;;;;11.59;68.44;100029.81;1461041;88;21377;-89
2023/02/19 10:33:24;;;;;;;2.75;1.82;;;;;;;11.70;68.09;100036.13;1441777;88;21318;-85
2023/02/19 10:35:55;;;;;;;3.43;2.70;;;;;;;11.88;67.16;100015.28;1441076;88;21274;-87
2023/02/19 10:38:32;;;;;;;2.23;1.93;;;;;;;11.96;67.05;100023.25;1460129;88;21437;-86
2023/02/19 10:41:17;;;;;;;2.73;2.33;;;;;;;12.14;66.16;100021.27;1454218;88;21297;-86
2023/02/19 10:47:32;;;;;;;5.70;3.80;;;;;;;12.32;66.17;100016.26;1448246;88;21290;-86
2023/02/19 10:50:00;;;;;;;3.37;2.73;;;;;;;12.37;66.11;100009.92;1417942;88;22336;-85
2023/02/19 10:56:23;;;;;;;3.83;2.33;;;;;;;12.40;66.04;99988.38;1447192;88;21340;-86
2023/02/19 10:59:21;;;;;;;4.13;2.53;;;;;;;12.17;66.42;99982.96;1414924;88;21393;-87
2023/02/19 11:08:22;;;;;;;2.80;2.40;;;;;;;11.94;67.06;99981.50;1441012;88;21319;-86
2023/02/19 11:10:48;;;;;;;4.17;3.33;;;;;;;11.99;67.71;99977.82;1473244;88;22287;-87
2023/02/19 11:13:26;;;;;;;5.60;3.30;;;;;;;12.03;67.56;99983.14;1475166;88;22770;-86
2023/02/19 11:16:03;;;;;;;5.97;2.90;;;;;;;12.05;67.70;99979.80;1464328;88;22398;-86
2023/02/19 11:18:34;;;;;;;5.37;4.23;;;;;;;12.07;67.75;99973.84;1467041;88;21489;-87
2023/02/19 11:24:37;;;;;;;;;;;;;;;;;;;;;
2023/02/19 11:27:26;;;;;;;8.43;6.73;;;;;;;12.03;70.21;99967.73;1450741;88;22250;-87
2023/02/19 11:30:23;;;;;;;8.10;6.10;;;;;;;11.97;70.65;99965.25;1456072;88;22449;-86
2023/02/19 11:32:49;;;;;;;8.80;5.70;;;;;;;11.99;70.76;99980.47;1473276;88;21673;-87
2023/02/19 11:35:21;;;;;;;9.53;6.13;;;;;;;11.97;70.58;99957.30;1471482;88;21414;-88
2023/02/19 11:38:00;;;;;;;13.27;7.17;;;;;;;11.93;69.88;99954.63;1472782;87;21458;-80
2023/02/19 11:40:59;;;;;;;9.47;6.77;;;;;;;11.91;70.01;99945.53;1473682;88;22184;-83
2023/02/19 11:43:42;;;;;;;10.10;7.57;;;;;;;11.88;70.38;99952.50;1470495;88;21458;-85
2023/02/19 11:46:26;;;;;;;9.50;7.37;;;;;;;11.83;71.70;99939.37;1475250;88;21519;-83
2023/02/19 11:49:33;;;;;;;11.03;8.57;;;;;;;11.85;71.64;99943.52;1466456;88;21428;-84
2023/02/19 11:52:24;;;;;;;12.27;8.80;;;;;;;11.98;71.25;99940.87;1473693;88;22972;-85
2023/02/19 11:55:16;;;;;;;15.13;9.73;;;;;;;12.01;70.71;99936.06;1469192;88;22375;-84
2023/02/19 11:58:00;;;;;;;21.57;13.77;;;;;;;12.15;70.91;99935.88;1470082;88;22381;-87
2023/02/19 12:00:29;;;;;;;15.43;11.23;;;;;;;12.16;70.67;99918.44;1419093;91;21490;-88
2023/02/19 12:03:40;;;;;;;16.37;10.30;;;;;;;12.01;70.68;99926.77;1454003;88;22467;-85
2023/02/19 12:06:10;;;;;;;;;;;;;;;11.83;70.96;99912.87;1471976;88;22368;-86
2023/02/19 12:08:54;;;;;;;11.93;8.97;;;;;;;11.69;72.01;99924.47;1471466;88;20376;-83
2023/02/19 12:11:33;;;;;;;9.60;7.27;;;;;;;11.62;72.52;99919.99;1467573;88;21666;-87
2023/02/19 12:14:05;;;;;;;11.50;9.57;;;;;;;11.57;73.12;99923.16;1470029;88;22346;-85
2023/02/19 12:16:42;;;;;;;14.17;10.67;;;;;;;11.61;73.61;99915.70;1449660;88;21539;-85
2023/02/19 12:19:58;;;;;;;11.67;9.07;;;;;;;11.72;73.33;99923.31;1460479;88;21570;-87
2023/02/19 12:30:22;;;;;;;10.37;6.70;;;;;;;11.98;71.73;99897.94;1469600;88;21458;-85
2023/02/19 12:33:23;;;;;;;9.83;7.37;;;;;;;12.17;71.81;99888.28;1468145;88;21533;-85
2023/02/19 12:36:34;;;;;;;7.30;6.33;;;;;;;13.06;70.44;99875.53;1471811;88;21621;-87
2023/02/19 12:39:27;;;;;;;7.15;5.87;;;;;;;13.65;66.17;99882.05;1469868;88;21540;-87
2023/02/19 12:42:11;;;;;;;8.90;5.47;;;;;;;14.06;64.49;99863.00;1428839;90;21698;-89
2023/02/19 12:44:56;;;;;;;4.63;4.00;;;;;;;14.40;63.11;99865.91;1436612;89;21615;-86
2023/02/19 12:47:37;;;;;;;4.40;3.47;;;;;;;14.55;62.49;99854.44;1431734;89;21697;-85
2023/02/19 12:50:17;;;;;;;5.65;4.30;;;;;;;14.72;61.86;99852.38;1425609;90;24695;-86
2023/02/19 12:52:48;;;;;;;3.62;3.05;;;;;;;14.93;62.14;99854.22;1434822;89;22040;-85
2023/02/19 12:55:30;;;;;;;3.43;2.70;;;;;;;15.17;61.50;99837.86;1430293;89;22321;-88
2023/02/19 12:58:01;;;;;;;5.85;3.25;;;;;;;15.23;61.34;99823.76;1429213;89;21509;-87
2023/02/19 13:00:51;;;;;;;5.12;2.58;;;;;;;15.16;61.36;99826.86;1415695;89;21465;-87
2023/02/19 13:03:49;;;;;;;2.95;2.55;;;;;;;15.30;60.67;99841.13;1395702;90;21451;-87
2023/02/19 13:06:26;;;;;;;3.50;2.25;;;;;;;15.34;59.35;99834.42;1400710;91;21377;-86
2023/02/19 13:09:03;;;;;;;2.77;1.92;;;;;;;15.54;58.92;99822.57;1415652;89;21369;-87